sensor_id;sensor_type;location;lat;lon;timestamp;P1;durP1;ratioP1;P2;durP2;ratioP2
25567;SDS011;13455;51.480;7.594;2022-07-18T00:01:41;5.05;;;1.90;;
25567;SDS011;13455;51.480;7.594;2022-07-18T00:04:07;4.85;;;1.45;;
25567;SDS011;13455;51.480;7.594;2022-07-18T00:06:33;4.93;;;1.60;;
25567;SDS011;13455;51.480;7.594;2022-07-18T00:09:00;4.13;;;1.50;;
25567;SDS011;13455;51.480;7.594;2022-07-18T00:11:26;4.65;;;1.58;;
25567;SDS011;13455;51.480;7.594;2022-07-18T00:13:52;3.75;;;1.20;;
25567;SDS011;13455;51.480;7.594;2022-07-18T00:16:18;6.90;;;1.50;;
25567;SDS011;13455;51.480;7.594;2022-07-18T00:18:44;5.20;;;1.63;;
25567;SDS011;13455;51.480;7.594;2022-07-18T00:21:10;6.25;;;1.60;;
25567;SDS011;13455;51.480;7.594;2022-07-18T00:23:36;5.93;;;1.57;;
25567;SDS011;13455;51.480;7.594;2022-07-18T00:26:03;5.63;;;1.90;;
25567;SDS011;13455;51.480;7.594;2022-07-18T00:28:29;9.13;;;2.00;;
25567;SDS011;13455;51.480;7.594;2022-07-18T00:30:55;8.55;;;2.00;;
25567;SDS011;13455;51.480;7.594;2022-07-18T00:33:21;7.47;;;2.10;;
25567;SDS011;13455;51.480;7.594;2022-07-18T00:35:47;5.20;;;1.65;;
25567;SDS011;13455;51.480;7.594;2022-07-18T00:38:14;6.38;;;1.90;;
25567;SDS011;13455;51.480;7.594;2022-07-18T00:40:40;5.25;;;1.90;;
25567;SDS011;13455;51.480;7.594;2022-07-18T00:43:07;7.15;;;1.80;;
25567;SDS011;13455;51.480;7.594;2022-07-18T00:45:33;5.82;;;1.80;;
25567;SDS011;13455;51.480;7.594;2022-07-18T00:48:03;5.68;;;1.80;;
25567;SDS011;13455;51.480;7.594;2022-07-18T00:50:30;6.97;;;1.80;;
25567;SDS011;13455;51.480;7.594;2022-07-18T00:52:56;7.43;;;1.75;;
25567;SDS011;13455;51.480;7.594;2022-07-18T00:55:22;5.22;;;1.85;;
25567;SDS011;13455;51.480;7.594;2022-07-18T00:57:48;5.55;;;1.80;;
25567;SDS011;13455;51.480;7.594;2022-07-18T01:00:15;7.55;;;1.80;;
25567;SDS011;13455;51.480;7.594;2022-07-18T01:03:00;6.05;;;1.90;;
25567;SDS011;13455;51.480;7.594;2022-07-18T01:05:26;7.95;;;2.10;;
25567;SDS011;13455;51.480;7.594;2022-07-18T01:07:52;7.75;;;2.15;;
25567;SDS011;13455;51.480;7.594;2022-07-18T01:10:18;6.55;;;2.10;;
25567;SDS011;13455;51.480;7.594;2022-07-18T01:12:44;6.70;;;2.00;;
25567;SDS011;13455;51.480;7.594;2022-07-18T01:15:11;5.32;;;1.73;;
25567;SDS011;13455;51.480;7.594;2022-07-18T01:17:37;6.60;;;1.88;;
25567;SDS011;13455;51.480;7.594;2022-07-18T01:20:03;7.82;;;1.80;;
25567;SDS011;13455;51.480;7.594;2022-07-18T01:22:30;5.43;;;2.10;;
25567;SDS011;13455;51.480;7.594;2022-07-18T01:24:56;6.85;;;2.08;;
25567;SDS011;13455;51.480;7.594;2022-07-18T01:27:22;6.32;;;2.00;;
25567;SDS011;13455;51.480;7.594;2022-07-18T01:29:48;8.18;;;2.00;;
25567;SDS011;13455;51.480;7.594;2022-07-18T01:32:15;7.03;;;2.15;;
25567;SDS011;13455;51.480;7.594;2022-07-18T01:34:42;6.25;;;1.98;;
25567;SDS011;13455;51.480;7.594;2022-07-18T01:37:08;5.63;;;1.90;;
25567;SDS011;13455;51.480;7.594;2022-07-18T01:39:34;5.90;;;1.98;;
25567;SDS011;13455;51.480;7.594;2022-07-18T01:42:02;8.70;;;2.10;;
25567;SDS011;13455;51.480;7.594;2022-07-18T01:44:28;8.83;;;2.00;;
25567;SDS011;13455;51.480;7.594;2022-07-18T01:46:55;6.28;;;2.08;;
25567;SDS011;13455;51.480;7.594;2022-07-18T01:49:21;6.47;;;1.77;;
25567;SDS011;13455;51.480;7.594;2022-07-18T01:51:48;6.95;;;1.85;;
25567;SDS011;13455;51.480;7.594;2022-07-18T01:54:14;6.65;;;1.92;;
25567;SDS011;13455;51.480;7.594;2022-07-18T01:56:41;6.37;;;1.87;;
25567;SDS011;13455;51.480;7.594;2022-07-18T01:59:07;6.97;;;1.85;;
25567;SDS011;13455;51.480;7.594;2022-07-18T02:01:33;6.15;;;1.63;;
25567;SDS011;13455;51.480;7.594;2022-07-18T02:03:59;4.97;;;1.80;;
25567;SDS011;13455;51.480;7.594;2022-07-18T02:06:25;4.85;;;1.70;;
25567;SDS011;13455;51.480;7.594;2022-07-18T02:08:51;7.55;;;2.15;;
25567;SDS011;13455;51.480;7.594;2022-07-18T02:11:17;5.43;;;1.77;;
25567;SDS011;13455;51.480;7.594;2022-07-18T02:13:43;5.95;;;1.90;;
25567;SDS011;13455;51.480;7.594;2022-07-18T02:16:09;5.60;;;1.67;;
25567;SDS011;13455;51.480;7.594;2022-07-18T02:18:35;5.90;;;1.80;;
25567;SDS011;13455;51.480;7.594;2022-07-18T02:21:01;5.05;;;1.60;;
25567;SDS011;13455;51.480;7.594;2022-07-18T02:23:28;6.13;;;1.90;;
25567;SDS011;13455;51.480;7.594;2022-07-18T02:25:54;4.93;;;1.63;;
25567;SDS011;13455;51.480;7.594;2022-07-18T02:28:20;6.80;;;1.90;;
25567;SDS011;13455;51.480;7.594;2022-07-18T02:30:46;5.18;;;1.88;;
25567;SDS011;13455;51.480;7.594;2022-07-18T02:33:15;4.82;;;1.67;;
25567;SDS011;13455;51.480;7.594;2022-07-18T02:35:42;8.63;;;1.85;;
25567;SDS011;13455;51.480;7.594;2022-07-18T02:38:08;5.80;;;1.70;;
25567;SDS011;13455;51.480;7.594;2022-07-18T02:40:34;5.38;;;1.60;;
25567;SDS011;13455;51.480;7.594;2022-07-18T02:43:01;5.25;;;1.70;;
25567;SDS011;13455;51.480;7.594;2022-07-18T02:45:27;5.10;;;1.60;;
25567;SDS011;13455;51.480;7.594;2022-07-18T02:47:53;4.88;;;1.67;;
25567;SDS011;13455;51.480;7.594;2022-07-18T02:50:19;5.95;;;1.80;;
25567;SDS011;13455;51.480;7.594;2022-07-18T02:52:45;5.47;;;1.55;;
25567;SDS011;13455;51.480;7.594;2022-07-18T02:55:12;4.57;;;1.48;;
25567;SDS011;13455;51.480;7.594;2022-07-18T02:57:38;5.50;;;1.40;;
25567;SDS011;13455;51.480;7.594;2022-07-18T03:00:05;4.22;;;1.40;;
25567;SDS011;13455;51.480;7.594;2022-07-18T03:02:32;3.38;;;1.50;;
25567;SDS011;13455;51.480;7.594;2022-07-18T03:04:58;4.38;;;1.50;;
25567;SDS011;13455;51.480;7.594;2022-07-18T03:07:24;3.33;;;1.48;;
25567;SDS011;13455;51.480;7.594;2022-07-18T03:09:50;6.40;;;1.50;;
25567;SDS011;13455;51.480;7.594;2022-07-18T03:12:16;3.30;;;1.42;;
25567;SDS011;13455;51.480;7.594;2022-07-18T03:14:43;4.35;;;1.50;;
25567;SDS011;13455;51.480;7.594;2022-07-18T03:17:09;4.97;;;1.57;;
25567;SDS011;13455;51.480;7.594;2022-07-18T03:19:35;3.67;;;1.40;;
25567;SDS011;13455;51.480;7.594;2022-07-18T03:22:02;5.93;;;1.60;;
25567;SDS011;13455;51.480;7.594;2022-07-18T03:24:28;4.97;;;1.50;;
25567;SDS011;13455;51.480;7.594;2022-07-18T03:26:54;4.05;;;1.65;;
25567;SDS011;13455;51.480;7.594;2022-07-18T03:29:21;5.70;;;1.60;;
25567;SDS011;13455;51.480;7.594;2022-07-18T03:31:47;5.63;;;1.50;;
25567;SDS011;13455;51.480;7.594;2022-07-18T03:34:13;3.80;;;1.50;;
25567;SDS011;13455;51.480;7.594;2022-07-18T03:36:39;3.73;;;1.40;;
25567;SDS011;13455;51.480;7.594;2022-07-18T03:39:05;5.18;;;1.70;;
25567;SDS011;13455;51.480;7.594;2022-07-18T03:41:32;4.28;;;1.50;;
25567;SDS011;13455;51.480;7.594;2022-07-18T03:43:58;5.05;;;1.42;;
25567;SDS011;13455;51.480;7.594;2022-07-18T03:46:24;5.35;;;1.70;;
25567;SDS011;13455;51.480;7.594;2022-07-18T03:48:50;4.13;;;1.70;;
25567;SDS011;13455;51.480;7.594;2022-07-18T03:51:16;5.30;;;1.80;;
25567;SDS011;13455;51.480;7.594;2022-07-18T03:53:42;5.55;;;1.70;;
25567;SDS011;13455;51.480;7.594;2022-07-18T03:56:08;4.82;;;1.42;;
25567;SDS011;13455;51.480;7.594;2022-07-18T03:58:34;4.47;;;1.50;;
25567;SDS011;13455;51.480;7.594;2022-07-18T04:01:00;4.82;;;1.70;;
25567;SDS011;13455;51.480;7.594;2022-07-18T04:03:26;6.72;;;1.80;;
25567;SDS011;13455;51.480;7.594;2022-07-18T04:05:52;6.40;;;1.80;;
25567;SDS011;13455;51.480;7.594;2022-07-18T04:08:18;7.00;;;1.88;;
25567;SDS011;13455;51.480;7.594;2022-07-18T04:10:44;4.40;;;1.92;;
25567;SDS011;13455;51.480;7.594;2022-07-18T04:13:10;4.93;;;1.60;;
25567;SDS011;13455;51.480;7.594;2022-07-18T04:15:37;4.78;;;1.50;;
25567;SDS011;13455;51.480;7.594;2022-07-18T04:18:04;5.13;;;1.45;;
25567;SDS011;13455;51.480;7.594;2022-07-18T04:20:30;4.50;;;1.52;;
25567;SDS011;13455;51.480;7.594;2022-07-18T04:22:57;4.53;;;1.67;;
25567;SDS011;13455;51.480;7.594;2022-07-18T04:25:25;5.32;;;1.60;;
25567;SDS011;13455;51.480;7.594;2022-07-18T04:27:51;5.43;;;1.77;;
25567;SDS011;13455;51.480;7.594;2022-07-18T04:30:19;5.23;;;1.60;;
25567;SDS011;13455;51.480;7.594;2022-07-18T04:32:45;5.13;;;1.63;;
25567;SDS011;13455;51.480;7.594;2022-07-18T04:35:12;5.43;;;1.75;;
25567;SDS011;13455;51.480;7.594;2022-07-18T04:37:38;4.07;;;1.50;;
25567;SDS011;13455;51.480;7.594;2022-07-18T04:40:05;4.65;;;1.50;;
25567;SDS011;13455;51.480;7.594;2022-07-18T04:42:31;4.38;;;1.60;;
25567;SDS011;13455;51.480;7.594;2022-07-18T04:44:58;5.82;;;1.67;;
25567;SDS011;13455;51.480;7.594;2022-07-18T04:47:27;5.37;;;1.70;;
25567;SDS011;13455;51.480;7.594;2022-07-18T04:49:53;4.85;;;1.50;;
25567;SDS011;13455;51.480;7.594;2022-07-18T04:52:20;5.68;;;1.50;;
25567;SDS011;13455;51.480;7.594;2022-07-18T04:54:46;6.10;;;1.67;;
25567;SDS011;13455;51.480;7.594;2022-07-18T04:57:12;4.45;;;1.40;;
25567;SDS011;13455;51.480;7.594;2022-07-18T04:59:42;4.50;;;1.60;;
25567;SDS011;13455;51.480;7.594;2022-07-18T05:02:09;4.72;;;1.50;;
25567;SDS011;13455;51.480;7.594;2022-07-18T05:04:35;3.45;;;1.45;;
25567;SDS011;13455;51.480;7.594;2022-07-18T05:07:02;4.00;;;1.20;;
25567;SDS011;13455;51.480;7.594;2022-07-18T05:09:28;4.70;;;1.60;;
25567;SDS011;13455;51.480;7.594;2022-07-18T05:11:54;4.13;;;1.48;;
25567;SDS011;13455;51.480;7.594;2022-07-18T05:14:20;6.57;;;1.63;;
25567;SDS011;13455;51.480;7.594;2022-07-18T05:16:46;4.00;;;1.40;;
25567;SDS011;13455;51.480;7.594;2022-07-18T05:19:13;3.80;;;1.30;;
25567;SDS011;13455;51.480;7.594;2022-07-18T05:21:40;4.60;;;1.50;;
25567;SDS011;13455;51.480;7.594;2022-07-18T05:24:06;3.13;;;1.40;;
25567;SDS011;13455;51.480;7.594;2022-07-18T05:26:33;4.75;;;1.40;;
25567;SDS011;13455;51.480;7.594;2022-07-18T05:28:59;3.70;;;1.30;;
25567;SDS011;13455;51.480;7.594;2022-07-18T05:31:25;4.70;;;1.30;;
25567;SDS011;13455;51.480;7.594;2022-07-18T05:33:51;3.38;;;1.50;;
25567;SDS011;13455;51.480;7.594;2022-07-18T05:36:17;4.57;;;1.30;;
25567;SDS011;13455;51.480;7.594;2022-07-18T05:38:43;4.40;;;1.58;;
25567;SDS011;13455;51.480;7.594;2022-07-18T05:41:09;6.10;;;1.33;;
25567;SDS011;13455;51.480;7.594;2022-07-18T05:43:35;4.90;;;1.45;;
25567;SDS011;13455;51.480;7.594;2022-07-18T05:46:01;4.27;;;1.50;;
25567;SDS011;13455;51.480;7.594;2022-07-18T05:48:27;4.57;;;1.30;;
25567;SDS011;13455;51.480;7.594;2022-07-18T05:50:53;3.28;;;1.33;;
25567;SDS011;13455;51.480;7.594;2022-07-18T05:53:19;5.55;;;1.40;;
25567;SDS011;13455;51.480;7.594;2022-07-18T05:55:45;4.85;;;1.50;;
25567;SDS011;13455;51.480;7.594;2022-07-18T05:58:11;4.43;;;1.60;;
25567;SDS011;13455;51.480;7.594;2022-07-18T06:00:37;4.97;;;1.60;;
25567;SDS011;13455;51.480;7.594;2022-07-18T06:03:03;4.47;;;1.35;;
25567;SDS011;13455;51.480;7.594;2022-07-18T06:05:29;4.70;;;1.67;;
25567;SDS011;13455;51.480;7.594;2022-07-18T06:07:56;4.80;;;1.40;;
25567;SDS011;13455;51.480;7.594;2022-07-18T06:10:22;4.60;;;1.50;;
25567;SDS011;13455;51.480;7.594;2022-07-18T06:12:49;5.60;;;1.40;;
25567;SDS011;13455;51.480;7.594;2022-07-18T06:15:15;5.40;;;1.40;;
25567;SDS011;13455;51.480;7.594;2022-07-18T06:17:41;3.75;;;1.20;;
25567;SDS011;13455;51.480;7.594;2022-07-18T06:20:07;3.13;;;1.30;;
25567;SDS011;13455;51.480;7.594;2022-07-18T06:22:34;5.57;;;1.40;;
25567;SDS011;13455;51.480;7.594;2022-07-18T06:25:00;3.72;;;1.38;;
25567;SDS011;13455;51.480;7.594;2022-07-18T06:27:26;6.13;;;1.60;;
25567;SDS011;13455;51.480;7.594;2022-07-18T06:29:52;4.85;;;1.40;;
25567;SDS011;13455;51.480;7.594;2022-07-18T06:32:18;4.20;;;1.30;;
25567;SDS011;13455;51.480;7.594;2022-07-18T06:34:44;2.97;;;1.25;;
25567;SDS011;13455;51.480;7.594;2022-07-18T06:37:10;5.35;;;1.40;;
25567;SDS011;13455;51.480;7.594;2022-07-18T06:39:36;3.25;;;1.35;;
25567;SDS011;13455;51.480;7.594;2022-07-18T06:42:02;4.53;;;1.30;;
25567;SDS011;13455;51.480;7.594;2022-07-18T06:44:28;2.95;;;1.50;;
25567;SDS011;13455;51.480;7.594;2022-07-18T06:46:54;4.60;;;1.50;;
25567;SDS011;13455;51.480;7.594;2022-07-18T06:49:22;5.00;;;1.40;;
25567;SDS011;13455;51.480;7.594;2022-07-18T06:51:48;4.43;;;1.30;;
25567;SDS011;13455;51.480;7.594;2022-07-18T06:54:14;3.60;;;1.37;;
25567;SDS011;13455;51.480;7.594;2022-07-18T06:56:39;3.85;;;1.30;;
25567;SDS011;13455;51.480;7.594;2022-07-18T06:59:05;3.45;;;1.35;;
25567;SDS011;13455;51.480;7.594;2022-07-18T07:01:31;4.57;;;1.20;;
25567;SDS011;13455;51.480;7.594;2022-07-18T07:03:57;5.25;;;1.40;;
25567;SDS011;13455;51.480;7.594;2022-07-18T07:06:26;4.07;;;1.33;;
25567;SDS011;13455;51.480;7.594;2022-07-18T07:08:52;4.65;;;1.30;;
25567;SDS011;13455;51.480;7.594;2022-07-18T07:11:18;4.18;;;1.30;;
25567;SDS011;13455;51.480;7.594;2022-07-18T07:13:47;6.97;;;1.38;;
25567;SDS011;13455;51.480;7.594;2022-07-18T07:16:12;5.10;;;1.23;;
25567;SDS011;13455;51.480;7.594;2022-07-18T07:18:38;4.10;;;1.20;;
25567;SDS011;13455;51.480;7.594;2022-07-18T07:21:05;3.92;;;1.20;;
25567;SDS011;13455;51.480;7.594;2022-07-18T07:23:33;3.10;;;1.20;;
25567;SDS011;13455;51.480;7.594;2022-07-18T07:25:58;3.88;;;1.40;;
25567;SDS011;13455;51.480;7.594;2022-07-18T07:28:24;3.47;;;1.13;;
25567;SDS011;13455;51.480;7.594;2022-07-18T07:30:50;4.85;;;1.30;;
25567;SDS011;13455;51.480;7.594;2022-07-18T07:33:16;4.07;;;1.13;;
25567;SDS011;13455;51.480;7.594;2022-07-18T07:35:42;4.90;;;1.40;;
25567;SDS011;13455;51.480;7.594;2022-07-18T07:38:08;3.53;;;1.20;;
25567;SDS011;13455;51.480;7.594;2022-07-18T07:40:35;7.35;;;1.40;;
25567;SDS011;13455;51.480;7.594;2022-07-18T07:43:05;5.63;;;1.30;;
25567;SDS011;13455;51.480;7.594;2022-07-18T07:45:31;5.93;;;1.20;;
25567;SDS011;13455;51.480;7.594;2022-07-18T07:47:57;6.90;;;1.40;;
25567;SDS011;13455;51.480;7.594;2022-07-18T07:50:23;7.80;;;1.30;;
25567;SDS011;13455;51.480;7.594;2022-07-18T07:52:49;4.68;;;1.35;;
25567;SDS011;13455;51.480;7.594;2022-07-18T07:55:15;6.10;;;1.10;;
25567;SDS011;13455;51.480;7.594;2022-07-18T07:57:40;4.90;;;1.17;;
25567;SDS011;13455;51.480;7.594;2022-07-18T08:00:07;6.77;;;1.30;;
25567;SDS011;13455;51.480;7.594;2022-07-18T08:02:34;6.15;;;1.23;;
25567;SDS011;13455;51.480;7.594;2022-07-18T08:05:02;4.70;;;1.30;;
25567;SDS011;13455;51.480;7.594;2022-07-18T08:07:28;4.40;;;1.15;;
25567;SDS011;13455;51.480;7.594;2022-07-18T08:09:54;4.72;;;1.40;;
25567;SDS011;13455;51.480;7.594;2022-07-18T08:12:19;3.63;;;1.20;;
25567;SDS011;13455;51.480;7.594;2022-07-18T08:14:45;5.97;;;1.10;;
25567;SDS011;13455;51.480;7.594;2022-07-18T08:17:11;2.73;;;1.20;;
25567;SDS011;13455;51.480;7.594;2022-07-18T08:19:37;4.70;;;1.20;;
25567;SDS011;13455;51.480;7.594;2022-07-18T08:22:03;5.38;;;1.30;;
25567;SDS011;13455;51.480;7.594;2022-07-18T08:24:31;4.22;;;1.15;;
25567;SDS011;13455;51.480;7.594;2022-07-18T08:26:57;4.03;;;1.15;;
25567;SDS011;13455;51.480;7.594;2022-07-18T08:29:23;4.40;;;1.30;;
25567;SDS011;13455;51.480;7.594;2022-07-18T08:31:49;6.97;;;1.30;;
25567;SDS011;13455;51.480;7.594;2022-07-18T08:34:15;4.63;;;1.30;;
25567;SDS011;13455;51.480;7.594;2022-07-18T08:36:41;5.35;;;1.20;;
25567;SDS011;13455;51.480;7.594;2022-07-18T08:39:07;5.15;;;1.10;;
25567;SDS011;13455;51.480;7.594;2022-07-18T08:41:33;3.17;;;1.10;;
25567;SDS011;13455;51.480;7.594;2022-07-18T08:43:59;4.00;;;1.20;;
25567;SDS011;13455;51.480;7.594;2022-07-18T08:46:25;4.55;;;1.15;;
25567;SDS011;13455;51.480;7.594;2022-07-18T08:48:52;3.38;;;1.15;;
25567;SDS011;13455;51.480;7.594;2022-07-18T08:51:20;4.30;;;1.20;;
25567;SDS011;13455;51.480;7.594;2022-07-18T08:53:47;3.38;;;1.02;;
25567;SDS011;13455;51.480;7.594;2022-07-18T08:56:13;3.60;;;1.10;;
25567;SDS011;13455;51.480;7.594;2022-07-18T08:58:39;3.88;;;0.95;;
25567;SDS011;13455;51.480;7.594;2022-07-18T09:01:06;4.00;;;1.10;;
25567;SDS011;13455;51.480;7.594;2022-07-18T09:03:32;2.13;;;0.90;;
25567;SDS011;13455;51.480;7.594;2022-07-18T09:06:04;2.55;;;0.90;;
25567;SDS011;13455;51.480;7.594;2022-07-18T09:08:32;5.15;;;1.02;;
25567;SDS011;13455;51.480;7.594;2022-07-18T09:10:59;4.37;;;1.10;;
25567;SDS011;13455;51.480;7.594;2022-07-18T09:16:10;3.20;;;1.00;;
25567;SDS011;13455;51.480;7.594;2022-07-18T09:18:44;4.20;;;1.10;;
25567;SDS011;13455;51.480;7.594;2022-07-18T09:21:13;4.07;;;1.05;;
25567;SDS011;13455;51.480;7.594;2022-07-18T09:23:43;5.90;;;1.10;;
25567;SDS011;13455;51.480;7.594;2022-07-18T09:26:16;5.35;;;1.40;;
25567;SDS011;13455;51.480;7.594;2022-07-18T09:28:58;4.10;;;1.03;;
25567;SDS011;13455;51.480;7.594;2022-07-18T09:31:24;3.42;;;1.10;;
25567;SDS011;13455;51.480;7.594;2022-07-18T09:33:53;4.30;;;1.40;;
25567;SDS011;13455;51.480;7.594;2022-07-18T09:36:20;3.30;;;1.10;;
25567;SDS011;13455;51.480;7.594;2022-07-18T09:38:47;3.80;;;1.17;;
25567;SDS011;13455;51.480;7.594;2022-07-18T09:41:13;5.25;;;1.00;;
25567;SDS011;13455;51.480;7.594;2022-07-18T09:43:39;3.38;;;1.05;;
25567;SDS011;13455;51.480;7.594;2022-07-18T09:46:06;3.13;;;1.10;;
25567;SDS011;13455;51.480;7.594;2022-07-18T09:48:32;4.93;;;1.30;;
25567;SDS011;13455;51.480;7.594;2022-07-18T09:51:00;3.72;;;1.30;;
25567;SDS011;13455;51.480;7.594;2022-07-18T09:53:31;4.80;;;1.20;;
25567;SDS011;13455;51.480;7.594;2022-07-18T09:58:26;3.30;;;1.30;;
25567;SDS011;13455;51.480;7.594;2022-07-18T10:00:56;4.25;;;1.20;;
25567;SDS011;13455;51.480;7.594;2022-07-18T10:03:23;3.60;;;1.10;;
25567;SDS011;13455;51.480;7.594;2022-07-18T10:05:50;3.17;;;1.02;;
25567;SDS011;13455;51.480;7.594;2022-07-18T10:08:19;2.25;;;1.00;;
25567;SDS011;13455;51.480;7.594;2022-07-18T10:10:46;4.15;;;1.30;;
25567;SDS011;13455;51.480;7.594;2022-07-18T10:13:13;3.35;;;1.00;;
25567;SDS011;13455;51.480;7.594;2022-07-18T10:15:40;4.90;;;1.20;;
25567;SDS011;13455;51.480;7.594;2022-07-18T10:18:08;3.92;;;1.10;;
25567;SDS011;13455;51.480;7.594;2022-07-18T10:20:39;3.13;;;1.20;;
25567;SDS011;13455;51.480;7.594;2022-07-18T10:23:07;3.27;;;1.20;;
25567;SDS011;13455;51.480;7.594;2022-07-18T10:25:33;4.05;;;1.10;;
25567;SDS011;13455;51.480;7.594;2022-07-18T10:28:10;3.53;;;1.20;;
25567;SDS011;13455;51.480;7.594;2022-07-18T10:30:39;4.78;;;1.30;;
25567;SDS011;13455;51.480;7.594;2022-07-18T10:36:18;2.33;;;1.20;;
25567;SDS011;13455;51.480;7.594;2022-07-18T10:58:14;3.45;;;1.20;;
25567;SDS011;13455;51.480;7.594;2022-07-18T11:00:36;2.83;;;1.30;;
25567;SDS011;13455;51.480;7.594;2022-07-18T11:15:56;3.93;;;1.30;;
25567;SDS011;13455;51.480;7.594;2022-07-18T11:18:23;2.60;;;1.30;;
25567;SDS011;13455;51.480;7.594;2022-07-18T11:20:50;3.60;;;1.40;;
25567;SDS011;13455;51.480;7.594;2022-07-18T11:26:09;2.38;;;1.30;;
25567;SDS011;13455;51.480;7.594;2022-07-18T11:28:40;5.00;;;1.23;;
25567;SDS011;13455;51.480;7.594;2022-07-18T11:31:08;3.05;;;1.30;;
25567;SDS011;13455;51.480;7.594;2022-07-18T11:33:35;4.45;;;1.50;;
25567;SDS011;13455;51.480;7.594;2022-07-18T11:36:05;4.18;;;1.20;;
25567;SDS011;13455;51.480;7.594;2022-07-18T11:38:32;3.05;;;1.23;;
25567;SDS011;13455;51.480;7.594;2022-07-18T11:40:58;2.95;;;1.20;;
25567;SDS011;13455;51.480;7.594;2022-07-18T11:43:24;7.40;;;1.50;;
25567;SDS011;13455;51.480;7.594;2022-07-18T11:46:08;3.42;;;1.40;;
25567;SDS011;13455;51.480;7.594;2022-07-18T11:48:35;4.77;;;1.33;;
25567;SDS011;13455;51.480;7.594;2022-07-18T11:51:02;2.65;;;1.20;;
25567;SDS011;13455;51.480;7.594;2022-07-18T11:53:50;2.78;;;1.40;;
25567;SDS011;13455;51.480;7.594;2022-07-18T11:56:18;5.68;;;1.30;;
25567;SDS011;13455;51.480;7.594;2022-07-18T11:58:45;5.78;;;1.20;;
25567;SDS011;13455;51.480;7.594;2022-07-18T12:01:13;4.05;;;1.23;;
25567;SDS011;13455;51.480;7.594;2022-07-18T12:03:40;2.33;;;1.20;;
25567;SDS011;13455;51.480;7.594;2022-07-18T12:06:11;3.47;;;1.13;;
25567;SDS011;13455;51.480;7.594;2022-07-18T12:08:43;2.35;;;1.30;;
25567;SDS011;13455;51.480;7.594;2022-07-18T12:13:52;2.45;;;1.40;;
25567;SDS011;13455;51.480;7.594;2022-07-18T12:16:30;3.67;;;1.20;;
25567;SDS011;13455;51.480;7.594;2022-07-18T12:27:12;5.82;;;1.20;;
25567;SDS011;13455;51.480;7.594;2022-07-18T12:32:43;2.95;;;1.10;;
25567;SDS011;13455;51.480;7.594;2022-07-18T12:35:14;4.07;;;1.40;;
25567;SDS011;13455;51.480;7.594;2022-07-18T12:37:41;3.90;;;1.10;;
25567;SDS011;13455;51.480;7.594;2022-07-18T12:40:15;3.37;;;1.20;;
25567;SDS011;13455;51.480;7.594;2022-07-18T12:42:41;2.53;;;1.10;;
25567;SDS011;13455;51.480;7.594;2022-07-18T12:45:08;3.65;;;1.30;;
25567;SDS011;13455;51.480;7.594;2022-07-18T12:47:34;2.85;;;1.10;;
25567;SDS011;13455;51.480;7.594;2022-07-18T12:50:01;2.20;;;1.02;;
25567;SDS011;13455;51.480;7.594;2022-07-18T12:52:27;3.05;;;1.20;;
25567;SDS011;13455;51.480;7.594;2022-07-18T12:54:53;2.83;;;1.10;;
25567;SDS011;13455;51.480;7.594;2022-07-18T12:57:21;2.90;;;1.10;;
25567;SDS011;13455;51.480;7.594;2022-07-18T12:59:47;4.72;;;1.30;;
25567;SDS011;13455;51.480;7.594;2022-07-18T13:02:13;3.00;;;1.27;;
25567;SDS011;13455;51.480;7.594;2022-07-18T13:04:40;1.90;;;1.10;;
25567;SDS011;13455;51.480;7.594;2022-07-18T13:07:06;3.30;;;1.20;;
25567;SDS011;13455;51.480;7.594;2022-07-18T13:09:31;2.90;;;1.10;;
25567;SDS011;13455;51.480;7.594;2022-07-18T13:11:58;3.13;;;1.10;;
25567;SDS011;13455;51.480;7.594;2022-07-18T13:14:24;3.13;;;1.30;;
25567;SDS011;13455;51.480;7.594;2022-07-18T13:16:50;3.85;;;1.20;;
25567;SDS011;13455;51.480;7.594;2022-07-18T13:19:17;5.17;;;1.30;;
25567;SDS011;13455;51.480;7.594;2022-07-18T13:21:44;3.78;;;1.20;;
25567;SDS011;13455;51.480;7.594;2022-07-18T13:24:10;2.00;;;0.90;;
25567;SDS011;13455;51.480;7.594;2022-07-18T13:26:36;3.08;;;1.20;;
25567;SDS011;13455;51.480;7.594;2022-07-18T13:29:03;2.27;;;1.10;;
25567;SDS011;13455;51.480;7.594;2022-07-18T13:31:30;2.45;;;1.20;;
25567;SDS011;13455;51.480;7.594;2022-07-18T13:33:56;2.45;;;1.10;;
25567;SDS011;13455;51.480;7.594;2022-07-18T13:36:22;3.15;;;1.30;;
25567;SDS011;13455;51.480;7.594;2022-07-18T13:38:48;3.53;;;1.10;;
25567;SDS011;13455;51.480;7.594;2022-07-18T13:41:13;2.00;;;1.00;;
25567;SDS011;13455;51.480;7.594;2022-07-18T13:43:39;3.07;;;1.20;;
25567;SDS011;13455;51.480;7.594;2022-07-18T13:46:09;3.97;;;1.05;;
25567;SDS011;13455;51.480;7.594;2022-07-18T13:48:36;2.50;;;0.90;;
25567;SDS011;13455;51.480;7.594;2022-07-18T13:51:02;4.32;;;1.15;;
25567;SDS011;13455;51.480;7.594;2022-07-18T13:53:28;3.45;;;1.00;;
25567;SDS011;13455;51.480;7.594;2022-07-18T13:55:55;3.47;;;0.93;;
25567;SDS011;13455;51.480;7.594;2022-07-18T13:58:23;2.07;;;1.10;;
25567;SDS011;13455;51.480;7.594;2022-07-18T14:00:57;4.70;;;1.20;;
25567;SDS011;13455;51.480;7.594;2022-07-18T14:03:26;2.67;;;1.00;;
25567;SDS011;13455;51.480;7.594;2022-07-18T14:05:52;2.83;;;1.00;;
25567;SDS011;13455;51.480;7.594;2022-07-18T14:08:17;2.13;;;1.00;;
25567;SDS011;13455;51.480;7.594;2022-07-18T14:10:43;3.47;;;1.13;;
25567;SDS011;13455;51.480;7.594;2022-07-18T14:13:09;4.60;;;1.10;;
25567;SDS011;13455;51.480;7.594;2022-07-18T14:15:35;4.73;;;1.00;;
25567;SDS011;13455;51.480;7.594;2022-07-18T14:18:00;3.50;;;1.10;;
25567;SDS011;13455;51.480;7.594;2022-07-18T14:20:28;3.92;;;1.10;;
25567;SDS011;13455;51.480;7.594;2022-07-18T14:22:54;3.70;;;1.05;;
25567;SDS011;13455;51.480;7.594;2022-07-18T14:25:19;3.95;;;1.05;;
25567;SDS011;13455;51.480;7.594;2022-07-18T14:27:45;2.87;;;1.10;;
25567;SDS011;13455;51.480;7.594;2022-07-18T14:30:12;3.90;;;1.00;;
25567;SDS011;13455;51.480;7.594;2022-07-18T14:32:40;2.97;;;1.07;;
25567;SDS011;13455;51.480;7.594;2022-07-18T14:35:06;2.67;;;1.05;;
25567;SDS011;13455;51.480;7.594;2022-07-18T14:37:32;2.85;;;1.00;;
25567;SDS011;13455;51.480;7.594;2022-07-18T14:39:58;3.47;;;0.90;;
25567;SDS011;13455;51.480;7.594;2022-07-18T14:42:25;2.67;;;1.00;;
25567;SDS011;13455;51.480;7.594;2022-07-18T14:44:51;3.80;;;1.00;;
25567;SDS011;13455;51.480;7.594;2022-07-18T14:47:24;3.22;;;1.10;;
25567;SDS011;13455;51.480;7.594;2022-07-18T14:49:50;2.03;;;1.00;;
25567;SDS011;13455;51.480;7.594;2022-07-18T14:52:15;1.93;;;0.93;;
25567;SDS011;13455;51.480;7.594;2022-07-18T14:54:44;2.38;;;1.00;;
25567;SDS011;13455;51.480;7.594;2022-07-18T14:57:09;2.20;;;1.00;;
25567;SDS011;13455;51.480;7.594;2022-07-18T14:59:35;3.63;;;1.00;;
25567;SDS011;13455;51.480;7.594;2022-07-18T15:02:01;3.28;;;1.00;;
25567;SDS011;13455;51.480;7.594;2022-07-18T15:04:34;2.83;;;1.20;;
25567;SDS011;13455;51.480;7.594;2022-07-18T15:07:00;3.60;;;1.00;;
25567;SDS011;13455;51.480;7.594;2022-07-18T15:09:26;2.20;;;1.00;;
25567;SDS011;13455;51.480;7.594;2022-07-18T15:11:55;3.53;;;1.00;;
25567;SDS011;13455;51.480;7.594;2022-07-18T15:14:20;2.97;;;1.00;;
25567;SDS011;13455;51.480;7.594;2022-07-18T15:16:46;2.37;;;0.93;;
25567;SDS011;13455;51.480;7.594;2022-07-18T15:19:15;3.67;;;1.00;;
25567;SDS011;13455;51.480;7.594;2022-07-18T15:21:49;2.45;;;1.00;;
25567;SDS011;13455;51.480;7.594;2022-07-18T15:24:15;2.95;;;1.00;;
25567;SDS011;13455;51.480;7.594;2022-07-18T15:26:42;3.55;;;1.10;;
25567;SDS011;13455;51.480;7.594;2022-07-18T15:29:07;2.83;;;0.98;;
25567;SDS011;13455;51.480;7.594;2022-07-18T15:31:33;3.38;;;0.90;;
25567;SDS011;13455;51.480;7.594;2022-07-18T15:33:59;3.58;;;0.95;;
25567;SDS011;13455;51.480;7.594;2022-07-18T15:36:25;3.85;;;1.10;;
25567;SDS011;13455;51.480;7.594;2022-07-18T15:38:51;2.58;;;0.90;;
25567;SDS011;13455;51.480;7.594;2022-07-18T15:41:22;2.22;;;0.90;;
25567;SDS011;13455;51.480;7.594;2022-07-18T15:43:48;2.42;;;0.80;;